HNL weather

Daniel K Inouye International Airport
Honolulu, Hawaii, United States

Public forecast

Using degrees Fahrenheit for public forecast. Weather courtesy of forecast.io.

METAR (pilot weather report)

Retrieved 2018/12/13 02:53 UTC (14 minutes ago):

PHNL 130253Z 03008KT 10SM FEW022 BKN035 OVC049 24/19 A3017

TAF (pilot weather forecast)

Forecast is more than 12 hours old.

Retrieved 2018/12/12 00:45 UTC (1 day ago):

TAF PHNL 122342Z 1300/1406 05013G22KT P6SM FEW025 SCT040 SCT060 FM131400 06012KT P6SM FEW025 SCT040 FM132100 05020G27KT P6SM FEW025 SCT040 FM140500 06015KT P6SM FEW025 SCT040